IGO6815 EPWR-LKPR
Flight info
| Callsign | IGO6815 |
|---|---|
| Flight time | N/A |
| Altitude | 18000 |
| Route | ULGIL1K ULGIL T707 TOMTI DCT ASTEL DCT GOLOP GOLOP5R |
| Aircraft | A321/M-SDE3FGHIRWY/LB1 |
Departure
| Time | 2026-05-07 17:37 |
|---|---|
| Airport | Copernicus Wrocław Airport (EPWR) |
Arrival
| Time | N/A |
|---|---|
| Airport | Václav Havel Airport Prague (LKPR) |
| Time | Latitude | Longitude | Altitude | Speed | Heading |
|---|---|---|---|---|---|
| 2026-05-07 17:01 | 51.10887 | 16.87923 | 412 ft | 0 kts | 22° |
| 2026-05-07 17:25 | 51.10882 | 16.87919 | 410 ft | 4 kts | 22° |
| 2026-05-07 17:26 | 51.10857 | 16.87903 | 410 ft | 4 kts | 25° |
| 2026-05-07 17:26 | 51.10834 | 16.87893 | 410 ft | 4 kts | 342° |
| 2026-05-07 17:26 | 51.10815 | 16.87914 | 411 ft | 4 kts | 300° |
| 2026-05-07 17:26 | 51.10811 | 16.87923 | 409 ft | 0 kts | 296° |
| 2026-05-07 17:29 | 51.10813 | 16.87919 | 410 ft | 1 kts | 296° |
| 2026-05-07 17:29 | 51.10818 | 16.87901 | 409 ft | 3 kts | 296° |
| 2026-05-07 17:29 | 51.10828 | 16.87869 | 406 ft | 4 kts | 296° |
| 2026-05-07 17:30 | 51.10842 | 16.87824 | 412 ft | 5 kts | 296° |
| 2026-05-07 17:30 | 51.10860 | 16.87766 | 409 ft | 6 kts | 296° |
| 2026-05-07 17:30 | 51.10881 | 16.87695 | 412 ft | 8 kts | 296° |
| 2026-05-07 17:30 | 51.10907 | 16.87611 | 412 ft | 9 kts | 296° |
| 2026-05-07 17:31 | 51.10936 | 16.87516 | 412 ft | 10 kts | 296° |
| 2026-05-07 17:31 | 51.10932 | 16.87413 | 411 ft | 10 kts | 224° |
| 2026-05-07 17:31 | 51.10864 | 16.87359 | 412 ft | 11 kts | 206° |
| 2026-05-07 17:31 | 51.10789 | 16.87301 | 413 ft | 13 kts | 206° |
| 2026-05-07 17:32 | 51.10708 | 16.87247 | 413 ft | 13 kts | 182° |
| 2026-05-07 17:32 | 51.10646 | 16.87353 | 408 ft | 14 kts | 116° |
| 2026-05-07 17:32 | 51.10601 | 16.87501 | 409 ft | 16 kts | 116° |
| 2026-05-07 17:32 | 51.10551 | 16.87666 | 410 ft | 17 kts | 115° |
| 2026-05-07 17:33 | 51.10498 | 16.87839 | 410 ft | 18 kts | 116° |
| 2026-05-07 17:33 | 51.10442 | 16.88022 | 410 ft | 18 kts | 116° |
| 2026-05-07 17:33 | 51.10389 | 16.88198 | 414 ft | 18 kts | 116° |
| 2026-05-07 17:33 | 51.10333 | 16.88381 | 409 ft | 19 kts | 117° |
| 2026-05-07 17:34 | 51.10272 | 16.88573 | 410 ft | 20 kts | 116° |
| 2026-05-07 17:34 | 51.10208 | 16.88785 | 411 ft | 22 kts | 116° |
| 2026-05-07 17:34 | 51.10139 | 16.89008 | 408 ft | 23 kts | 116° |
| 2026-05-07 17:34 | 51.10070 | 16.89234 | 412 ft | 23 kts | 116° |
| 2026-05-07 17:35 | 51.10004 | 16.89442 | 413 ft | 18 kts | 117° |
| 2026-05-07 17:35 | 51.09972 | 16.89624 | 411 ft | 10 kts | 102° |
| 2026-05-07 17:35 | 51.09952 | 16.89650 | 409 ft | 1 kts | 208° |
| 2026-05-07 17:35 | 51.09949 | 16.89644 | 409 ft | 1 kts | 226° |
| 2026-05-07 17:36 | 51.09946 | 16.89629 | 411 ft | 1 kts | 257° |
| 2026-05-07 17:36 | 51.09951 | 16.89614 | 410 ft | 2 kts | 294° |
| 2026-05-07 17:36 | 51.09952 | 16.89609 | 408 ft | 0 kts | 295° |
| 2026-05-07 17:37 | 51.09972 | 16.89542 | 409 ft | 33 kts | 295° |
| 2026-05-07 17:37 | 51.10187 | 16.88846 | 411 ft | 105 kts | 296° |
| 2026-05-07 17:37 | 51.10597 | 16.87514 | 417 ft | 159 kts | 300° |
| 2026-05-07 17:37 | 51.11094 | 16.85896 | 1050 ft | 161 kts | 299° |
| 2026-05-07 17:38 | 51.11626 | 16.84344 | 1875 ft | 159 kts | 303° |
| 2026-05-07 17:38 | 51.12143 | 16.82812 | 2578 ft | 156 kts | 299° |
| 2026-05-07 17:38 | 51.12576 | 16.81158 | 2977 ft | 172 kts | 282° |
| 2026-05-07 17:38 | 51.12269 | 16.79231 | 3197 ft | 199 kts | 233° |
| 2026-05-07 17:39 | 51.11171 | 16.77700 | 3373 ft | 220 kts | 223° |
| 2026-05-07 17:39 | 51.09252 | 16.73779 | 3907 ft | 254 kts | 239° |
| 2026-05-07 17:39 | 51.08318 | 16.71368 | 4682 ft | 257 kts | 240° |
| 2026-05-07 17:40 | 51.07405 | 16.68919 | 5445 ft | 259 kts | 240° |
| 2026-05-07 17:40 | 51.06479 | 16.66426 | 5874 ft | 263 kts | 240° |
| 2026-05-07 17:40 | 51.05548 | 16.63937 | 5981 ft | 262 kts | 239° |
| 2026-05-07 17:40 | 51.04608 | 16.61451 | 6015 ft | 262 kts | 239° |
| 2026-05-07 17:41 | 51.03844 | 16.58865 | 6165 ft | 266 kts | 257° |
| 2026-05-07 17:41 | 51.03615 | 16.55918 | 6956 ft | 265 kts | 264° |
| 2026-05-07 17:41 | 51.03437 | 16.53035 | 7683 ft | 267 kts | 263° |
| 2026-05-07 17:41 | 51.03311 | 16.51041 | 8166 ft | 269 kts | 263° |
| 2026-05-07 17:42 | 51.02670 | 16.40731 | 10250 ft | 291 kts | 263° |
| 2026-05-07 17:42 | 51.02465 | 16.37402 | 10376 ft | 313 kts | 263° |
| 2026-05-07 17:43 | 51.02247 | 16.33897 | 10741 ft | 324 kts | 263° |
| 2026-05-07 17:43 | 51.02022 | 16.30310 | 11321 ft | 328 kts | 263° |
| 2026-05-07 17:43 | 51.01795 | 16.26694 | 11941 ft | 331 kts | 263° |